PWSweather.com
Personal Weather Stations
Station Observations
SHAHALMS1
Eftra, Falkenberg, HA

EftraFalkenberg, HA

Lat: 56.85, Lon: 12.65

Elevation: 140

Station Type:

http://hem.passagen.se/risarp101

High Low Average
Temperature 44.4°F6.9°C 35.2°F1.8°C 38.0°F3.3°C
Dew Point 42.8°F6.0°C 30.1°F-1.1°C 34.1°F1.2°C
Winds 13.1 mph 21.1 kmh 0.4 mph 0.6 kmh 7.0 mph SE11.3 kmh SE
Wind Gusts 21.1 mph34.0 kmh 5.7 mph9.2 kmh 13.0 mph20.9 kmh
Humidity 94% 76% 86%
Pressure 29.80 in1009.1 mb 29.33 in993.2 mb -
Precipitation 0.05 in1.3 mm - -
Hour Temp Dew Point Humidity Winds Wind Gusts Pressure Precip Precip Rate Daily Precip Total
12:00 AM 38.3°F3.5°C 34.5°F1.4°C 86% 5.8 mph SSE9.3 kmh SSE 10.4 mph16.7 kmh 29.80 in1009.1 mb 0.00 in0.0 mm 0.00 in0.0 mm 0.00 in0.0 mm
12:15 AM 37.6°F3.1°C 33.5°F0.8°C 85% 7.2 mph ESE11.6 kmh ESE 12.9 mph20.8 kmh 29.80 in1009.1 mb 0.00 in0.0 mm 0.00 in0.0 mm 0.00 in0.0 mm
12:30 AM 36.3°F2.4°C 32.2°F0.1°C 85% 7.5 mph ESE12.1 kmh ESE 11.5 mph18.5 kmh 29.80 in1009.1 mb 0.00 in0.0 mm 0.00 in0.0 mm 0.00 in0.0 mm
12:45 AM 36.0°F2.2°C 32.5°F0.3°C 87% 6.4 mph E10.3 kmh E 11.8 mph19.0 kmh 29.77 in1008.1 mb 0.00 in0.0 mm 0.00 in0.0 mm 0.00 in0.0 mm
01:00 AM 35.6°F2.0°C 32.1°F0.1°C 87% 8.8 mph E14.2 kmh E 14.0 mph22.5 kmh 29.74 in1007.1 mb 0.00 in0.0 mm 0.00 in0.0 mm 0.00 in0.0 mm
01:15 AM 35.8°F2.1°C 32.6°F0.3°C 88% 7.5 mph ESE12.1 kmh ESE 11.8 mph19.0 kmh 29.74 in1007.1 mb 0.00 in0.0 mm 0.00 in0.0 mm 0.00 in0.0 mm
01:30 AM 35.6°F2.0°C 32.1°F0.1°C 87% 6.7 mph E10.8 kmh E 10.4 mph16.7 kmh 29.71 in1006.1 mb 0.00 in0.0 mm 0.00 in0.0 mm 0.00 in0.0 mm
01:45 AM 35.2°F1.8°C 31.8°F-0.1°C 87% 1.7 mph E2.7 kmh E 9.3 mph15.0 kmh 29.71 in1006.1 mb 0.00 in0.0 mm 0.00 in0.0 mm 0.00 in0.0 mm
02:00 AM 35.2°F1.8°C 32.0°F0.0°C 88% 7.5 mph E12.1 kmh E 11.8 mph19.0 kmh 29.74 in1007.1 mb 0.00 in0.0 mm 0.00 in0.0 mm 0.00 in0.0 mm
02:15 AM 35.2°F1.8°C 32.3°F0.2°C 89% 8.9 mph ESE14.3 kmh ESE 14.0 mph22.5 kmh 29.74 in1007.1 mb 0.00 in0.0 mm 0.00 in0.0 mm 0.00 in0.0 mm
02:30 AM 35.4°F1.9°C 32.5°F0.3°C 89% 9.2 mph ESE14.8 kmh ESE 15.4 mph24.8 kmh 29.71 in1006.1 mb 0.00 in0.0 mm 0.00 in0.0 mm 0.00 in0.0 mm
02:45 AM 35.6°F2.0°C 33.0°F0.6°C 90% 9.0 mph ESE14.5 kmh ESE 15.4 mph24.8 kmh 29.71 in1006.1 mb 0.00 in0.0 mm 0.00 in0.0 mm 0.00 in0.0 mm
03:00 AM 35.8°F2.1°C 33.1°F0.6°C 90% 8.8 mph E14.2 kmh E 14.0 mph22.5 kmh 29.71 in1006.1 mb 0.00 in0.0 mm 0.00 in0.0 mm 0.00 in0.0 mm
03:15 AM 36.0°F2.2°C 33.3°F0.7°C 90% 9.4 mph ESE15.1 kmh ESE 14.0 mph22.5 kmh 29.68 in1005.1 mb 0.00 in0.0 mm 0.00 in0.0 mm 0.00 in0.0 mm
03:30 AM 36.1°F2.3°C 33.5°F0.8°C 90% 9.5 mph ESE15.3 kmh ESE 17.2 mph27.7 kmh 29.68 in1005.1 mb 0.00 in0.0 mm 0.00 in0.0 mm 0.00 in0.0 mm
03:46 AM 36.1°F2.3°C 33.5°F0.8°C 90% 10.1 mph ESE16.3 kmh ESE 16.8 mph27.0 kmh 29.65 in1004.1 mb 0.00 in0.0 mm 0.00 in0.0 mm 0.00 in0.0 mm
04:15 AM 36.3°F2.4°C 33.1°F0.6°C 88% 10.5 mph ESE16.9 kmh ESE 17.5 mph28.2 kmh 29.68 in1005.1 mb 0.00 in0.0 mm 0.00 in0.0 mm 0.00 in0.0 mm
04:30 AM 36.3°F2.4°C 32.8°F0.4°C 87% 9.2 mph SE14.8 kmh SE 16.8 mph27.0 kmh 29.68 in1005.1 mb 0.00 in0.0 mm 0.00 in0.0 mm 0.00 in0.0 mm
04:45 AM 36.3°F2.4°C 32.2°F0.1°C 85% 9.9 mph ESE15.9 kmh ESE 16.1 mph25.9 kmh 29.68 in1005.1 mb 0.00 in0.0 mm 0.00 in0.0 mm 0.00 in0.0 mm
05:00 AM 36.5°F2.5°C 31.8°F-0.1°C 83% 10.1 mph ESE16.3 kmh ESE 15.4 mph24.8 kmh 29.68 in1005.1 mb 0.00 in0.0 mm 0.00 in0.0 mm 0.00 in0.0 mm
05:15 AM 36.5°F2.5°C 31.5°F-0.3°C 82% 9.3 mph E15.0 kmh E 14.0 mph22.5 kmh 29.68 in1005.1 mb 0.00 in0.0 mm 0.00 in0.0 mm 0.00 in0.0 mm
05:30 AM 36.7°F2.6°C 31.4°F-0.3°C 81% 7.5 mph ESE12.1 kmh ESE 13.6 mph21.9 kmh 29.68 in1005.1 mb 0.00 in0.0 mm 0.00 in0.0 mm 0.00 in0.0 mm
05:45 AM 36.7°F2.6°C 31.1°F-0.5°C 80% 7.9 mph E12.7 kmh E 12.9 mph20.8 kmh 29.68 in1005.1 mb 0.00 in0.0 mm 0.00 in0.0 mm 0.00 in0.0 mm
06:00 AM 36.7°F2.6°C 30.8°F-0.7°C 79% 8.8 mph E14.2 kmh E 14.0 mph22.5 kmh 29.65 in1004.1 mb 0.00 in0.0 mm 0.00 in0.0 mm 0.00 in0.0 mm
06:15 AM 36.7°F2.6°C 30.5°F-0.8°C 78% 8.2 mph E13.2 kmh E 13.6 mph21.9 kmh 29.65 in1004.1 mb 0.00 in0.0 mm 0.00 in0.0 mm 0.00 in0.0 mm
06:30 AM 36.5°F2.5°C 30.3°F-0.9°C 78% 6.6 mph E10.6 kmh E 11.5 mph18.5 kmh 29.65 in1004.1 mb 0.00 in0.0 mm 0.00 in0.0 mm 0.00 in0.0 mm
06:45 AM 36.5°F2.5°C 30.3°F-0.9°C 78% 6.1 mph E9.8 kmh E 10.4 mph16.7 kmh 29.65 in1004.1 mb 0.00 in0.0 mm 0.00 in0.0 mm 0.00 in0.0 mm
07:00 AM 36.3°F2.4°C 30.1°F-1.1°C 78% 0.4 mph ENE0.6 kmh ENE 5.7 mph9.2 kmh 29.62 in1003.0 mb 0.00 in0.0 mm 0.00 in0.0 mm 0.00 in0.0 mm
07:15 AM 36.5°F2.5°C 30.3°F-0.9°C 78% 4.4 mph E7.1 kmh E 10.0 mph16.1 kmh 29.62 in1003.0 mb 0.00 in0.0 mm 0.00 in0.0 mm 0.00 in0.0 mm
07:30 AM 36.7°F2.6°C 30.5°F-0.8°C 78% 5.4 mph E8.7 kmh E 11.5 mph18.5 kmh 29.62 in1003.0 mb 0.00 in0.0 mm 0.00 in0.0 mm 0.00 in0.0 mm
07:45 AM 36.9°F2.7°C 30.3°F-0.9°C 77% 6.1 mph E9.8 kmh E 10.4 mph16.7 kmh 29.62 in1003.0 mb 0.00 in0.0 mm 0.00 in0.0 mm 0.00 in0.0 mm
08:00 AM 37.0°F2.8°C 30.5°F-0.8°C 77% 6.5 mph E10.5 kmh E 12.2 mph19.6 kmh 29.62 in1003.0 mb 0.00 in0.0 mm 0.00 in0.0 mm 0.00 in0.0 mm
08:15 AM 37.2°F2.9°C 30.7°F-0.7°C 77% 7.3 mph E11.7 kmh E 11.8 mph19.0 kmh 29.62 in1003.0 mb 0.00 in0.0 mm 0.00 in0.0 mm 0.00 in0.0 mm
08:30 AM 37.4°F3.0°C 30.5°F-0.8°C 76% 7.4 mph ESE11.9 kmh ESE 14.0 mph22.5 kmh 29.65 in1004.1 mb 0.00 in0.0 mm 0.00 in0.0 mm 0.00 in0.0 mm
08:45 AM 37.4°F3.0°C 30.5°F-0.8°C 76% 7.7 mph ESE12.4 kmh ESE 14.0 mph22.5 kmh 29.62 in1003.0 mb 0.00 in0.0 mm 0.00 in0.0 mm 0.00 in0.0 mm
09:00 AM 37.4°F3.0°C 30.5°F-0.8°C 76% 6.2 mph SE10.0 kmh SE 12.5 mph20.1 kmh 29.62 in1003.0 mb 0.00 in0.0 mm 0.00 in0.0 mm 0.00 in0.0 mm
09:15 AM 37.4°F3.0°C 30.8°F-0.7°C 77% 6.5 mph ESE10.5 kmh ESE 11.8 mph19.0 kmh 29.59 in1002.0 mb 0.00 in0.0 mm 0.00 in0.0 mm 0.00 in0.0 mm
09:30 AM 37.4°F3.0°C 31.2°F-0.4°C 78% 3.9 mph ESE6.3 kmh ESE 10.4 mph16.7 kmh 29.59 in1002.0 mb 0.00 in0.0 mm 0.00 in0.0 mm 0.00 in0.0 mm
09:45 AM 37.4°F3.0°C 31.2°F-0.4°C 78% 4.0 mph SE6.4 kmh SE 12.5 mph20.1 kmh 29.62 in1003.0 mb 0.00 in0.0 mm 0.00 in0.0 mm 0.00 in0.0 mm
10:00 AM 37.4°F3.0°C 31.5°F-0.3°C 79% 5.8 mph ESE9.3 kmh ESE 13.6 mph21.9 kmh 29.62 in1003.0 mb 0.00 in0.0 mm 0.00 in0.0 mm 0.00 in0.0 mm
10:15 AM 37.4°F3.0°C 31.8°F-0.1°C 80% 7.4 mph ESE11.9 kmh ESE 11.8 mph19.0 kmh 29.62 in1003.0 mb 0.00 in0.0 mm 0.00 in0.0 mm 0.00 in0.0 mm
10:30 AM 37.6°F3.1°C 32.3°F0.2°C 81% 6.8 mph ESE10.9 kmh ESE 10.7 mph17.2 kmh 29.62 in1003.0 mb 0.00 in0.0 mm 0.00 in0.0 mm 0.00 in0.0 mm
10:45 AM 37.6°F3.1°C 32.3°F0.2°C 81% 4.5 mph E7.2 kmh E 12.9 mph20.8 kmh 29.62 in1003.0 mb 0.00 in0.0 mm 0.00 in0.0 mm 0.00 in0.0 mm
11:00 AM 37.6°F3.1°C 32.6°F0.3°C 82% 5.6 mph ESE9.0 kmh ESE 13.6 mph21.9 kmh 29.59 in1002.0 mb 0.00 in0.0 mm 0.00 in0.0 mm 0.00 in0.0 mm
11:15 AM 37.8°F3.2°C 33.1°F0.6°C 83% 6.9 mph ESE11.1 kmh ESE 12.2 mph19.6 kmh 29.59 in1002.0 mb 0.00 in0.0 mm 0.00 in0.0 mm 0.00 in0.0 mm
11:30 AM 37.9°F3.3°C 33.2°F0.7°C 83% 5.2 mph E8.4 kmh E 10.4 mph16.7 kmh 29.59 in1002.0 mb 0.00 in0.0 mm 0.00 in0.0 mm 0.00 in0.0 mm
12:15 PM 37.9°F3.3°C 33.8°F1.0°C 85% 5.0 mph ESE8.0 kmh ESE 12.2 mph19.6 kmh 29.56 in1001.0 mb 0.00 in0.0 mm 0.00 in0.0 mm 0.00 in0.0 mm
12:30 PM 38.1°F3.4°C 34.0°F1.1°C 85% 4.7 mph SE7.6 kmh SE 13.6 mph21.9 kmh 29.53 in1000.0 mb 0.00 in0.0 mm 0.00 in0.0 mm 0.00 in0.0 mm
12:45 PM 38.1°F3.4°C 34.0°F1.1°C 85% 5.7 mph ESE9.2 kmh ESE 10.4 mph16.7 kmh 29.56 in1001.0 mb 0.00 in0.0 mm 0.00 in0.0 mm 0.00 in0.0 mm
01:00 PM 38.1°F3.4°C 34.0°F1.1°C 85% 6.2 mph SE10.0 kmh SE 10.4 mph16.7 kmh 29.56 in1001.0 mb 0.00 in0.0 mm 0.00 in0.0 mm 0.00 in0.0 mm
01:15 PM 38.3°F3.5°C 34.2°F1.2°C 85% 3.8 mph SE6.1 kmh SE 10.0 mph16.1 kmh 29.56 in1001.0 mb 0.00 in0.0 mm 0.00 in0.0 mm 0.00 in0.0 mm
01:30 PM 38.5°F3.6°C 34.1°F1.2°C 84% 6.0 mph ESE9.7 kmh ESE 11.1 mph17.9 kmh 29.53 in1000.0 mb 0.00 in0.0 mm 0.00 in0.0 mm 0.00 in0.0 mm
01:45 PM 38.5°F3.6°C 34.1°F1.2°C 84% 3.6 mph ESE5.8 kmh ESE 9.7 mph15.6 kmh 29.53 in1000.0 mb 0.00 in0.0 mm 0.00 in0.0 mm 0.00 in0.0 mm
02:00 PM 38.5°F3.6°C 34.1°F1.2°C 84% 5.0 mph SE8.0 kmh SE 8.9 mph14.3 kmh 29.53 in1000.0 mb 0.00 in0.0 mm 0.00 in0.0 mm 0.00 in0.0 mm
02:15 PM 38.7°F3.7°C 34.5°F1.4°C 85% 3.2 mph ESE5.1 kmh ESE 9.7 mph15.6 kmh 29.53 in1000.0 mb 0.00 in0.0 mm 0.00 in0.0 mm 0.00 in0.0 mm
02:30 PM 38.7°F3.7°C 34.5°F1.4°C 85% 4.8 mph SE7.7 kmh SE 10.4 mph16.7 kmh 29.50 in999.0 mb 0.00 in0.0 mm 0.00 in0.0 mm 0.00 in0.0 mm
02:45 PM 38.7°F3.7°C 34.5°F1.4°C 85% 5.8 mph SE9.3 kmh SE 11.8 mph19.0 kmh 29.50 in999.0 mb 0.00 in0.0 mm 0.00 in0.0 mm 0.00 in0.0 mm
03:00 PM 38.8°F3.8°C 34.7°F1.5°C 85% 3.1 mph SSE5.0 kmh SSE 9.7 mph15.6 kmh 29.50 in999.0 mb 0.00 in0.0 mm 0.00 in0.0 mm 0.00 in0.0 mm
03:15 PM 38.8°F3.8°C 34.7°F1.5°C 85% 2.9 mph SSE4.7 kmh SSE 6.8 mph10.9 kmh 29.50 in999.0 mb 0.00 in0.0 mm 0.00 in0.0 mm 0.00 in0.0 mm
03:30 PM 38.8°F3.8°C 34.7°F1.5°C 85% 3.0 mph SE4.8 kmh SE 8.6 mph13.8 kmh 29.50 in999.0 mb 0.00 in0.0 mm 0.00 in0.0 mm 0.00 in0.0 mm
03:45 PM 38.8°F3.8°C 35.0°F1.7°C 86% 4.0 mph SE6.4 kmh SE 6.4 mph10.3 kmh 29.50 in999.0 mb 0.00 in0.0 mm 0.00 in0.0 mm 0.00 in0.0 mm
04:00 PM 38.7°F3.7°C 35.1°F1.7°C 87% 4.2 mph SE6.8 kmh SE 11.8 mph19.0 kmh 29.47 in998.0 mb 0.00 in0.0 mm 0.00 in0.0 mm 0.00 in0.0 mm
04:15 PM 38.7°F3.7°C 35.1°F1.7°C 87% 5.1 mph ESE8.2 kmh ESE 11.8 mph19.0 kmh 29.50 in999.0 mb 0.00 in0.0 mm 0.00 in0.0 mm 0.00 in0.0 mm
04:30 PM 38.7°F3.7°C 35.4°F1.9°C 88% 4.2 mph SSE6.8 kmh SSE 8.9 mph14.3 kmh 29.50 in999.0 mb 0.00 in0.0 mm 0.00 in0.0 mm 0.00 in0.0 mm
04:45 PM 38.7°F3.7°C 35.4°F1.9°C 88% 4.4 mph SE7.1 kmh SE 14.0 mph22.5 kmh 29.50 in999.0 mb 0.00 in0.0 mm 0.00 in0.0 mm 0.00 in0.0 mm
05:00 PM 38.7°F3.7°C 35.4°F1.9°C 88% 4.1 mph SE6.6 kmh SE 8.9 mph14.3 kmh 29.47 in998.0 mb 0.00 in0.0 mm 0.00 in0.0 mm 0.00 in0.0 mm
05:15 PM 38.7°F3.7°C 35.4°F1.9°C 88% 6.4 mph SE10.3 kmh SE 12.2 mph19.6 kmh 29.47 in998.0 mb 0.00 in0.0 mm 0.00 in0.0 mm 0.00 in0.0 mm
05:30 PM 38.5°F3.6°C 35.5°F1.9°C 89% 4.7 mph SE7.6 kmh SE 9.7 mph15.6 kmh 29.47 in998.0 mb 0.00 in0.0 mm 0.00 in0.0 mm 0.00 in0.0 mm
05:45 PM 38.5°F3.6°C 35.5°F1.9°C 89% 7.7 mph ESE12.4 kmh ESE 14.3 mph23.0 kmh 29.45 in997.3 mb 0.00 in0.0 mm 0.00 in0.0 mm 0.00 in0.0 mm
06:00 PM 38.5°F3.6°C 35.5°F1.9°C 89% 4.5 mph SE7.2 kmh SE 9.7 mph15.6 kmh 29.41 in995.9 mb 0.00 in0.0 mm 0.00 in0.0 mm 0.00 in0.0 mm
06:15 PM 38.5°F3.6°C 35.5°F1.9°C 89% 6.9 mph SE11.1 kmh SE 12.5 mph20.1 kmh 29.45 in997.3 mb 0.00 in0.0 mm 0.00 in0.0 mm 0.00 in0.0 mm
06:30 PM 38.7°F3.7°C 35.7°F2.1°C 89% 10.7 mph SE17.2 kmh SE 16.1 mph25.9 kmh 29.45 in997.3 mb 0.00 in0.0 mm 0.00 in0.0 mm 0.00 in0.0 mm
06:45 PM 38.7°F3.7°C 35.7°F2.1°C 89% 13.1 mph SE21.1 kmh SE 16.1 mph25.9 kmh 29.45 in997.3 mb 0.00 in0.0 mm 0.00 in0.0 mm 0.00 in0.0 mm
07:00 PM 38.7°F3.7°C 35.7°F2.1°C 89% 8.1 mph S13.0 kmh S 10.0 mph16.1 kmh 29.45 in997.3 mb 0.00 in0.0 mm 0.00 in0.0 mm 0.00 in0.0 mm
07:15 PM 38.7°F3.7°C 36.0°F2.2°C 90% 12.1 mph SSE19.5 kmh SSE 16.8 mph27.0 kmh 29.41 in995.9 mb 0.00 in0.0 mm 0.00 in0.0 mm 0.00 in0.0 mm
07:30 PM 38.8°F3.8°C 36.2°F2.3°C 90% 6.5 mph SSE10.5 kmh SSE 12.5 mph20.1 kmh 29.41 in995.9 mb 0.00 in0.0 mm 0.00 in0.0 mm 0.00 in0.0 mm
07:46 PM 38.8°F3.8°C 36.2°F2.3°C 90% 5.5 mph SSE8.9 kmh SSE 11.8 mph19.0 kmh 29.41 in995.9 mb 0.00 in0.0 mm 0.00 in0.0 mm 0.00 in0.0 mm
08:00 PM 38.8°F3.8°C 36.4°F2.4°C 91% 7.0 mph SE11.3 kmh SE 14.0 mph22.5 kmh 29.41 in995.9 mb 0.00 in0.0 mm 0.00 in0.0 mm 0.00 in0.0 mm
08:15 PM 38.8°F3.8°C 36.4°F2.4°C 91% 6.7 mph SE10.8 kmh SE 13.6 mph21.9 kmh 29.39 in995.3 mb 0.00 in0.0 mm 0.00 in0.0 mm 0.00 in0.0 mm
08:30 PM 39.2°F4.0°C 37.1°F2.8°C 92% 5.4 mph SE8.7 kmh SE 13.6 mph21.9 kmh 29.39 in995.3 mb 0.00 in0.0 mm 0.00 in0.0 mm 0.00 in0.0 mm
08:45 PM 39.4°F4.1°C 37.2°F2.9°C 92% 8.0 mph SE12.9 kmh SE 17.5 mph28.2 kmh 29.39 in995.3 mb 0.00 in0.0 mm 0.00 in0.0 mm 0.00 in0.0 mm
09:00 PM 39.7°F4.3°C 37.9°F3.3°C 93% 8.0 mph SSE12.9 kmh SSE 16.1 mph25.9 kmh 29.39 in995.3 mb 0.00 in0.0 mm 0.00 in0.0 mm 0.00 in0.0 mm
09:15 PM 39.9°F4.4°C 38.1°F3.4°C 93% 10.2 mph SE16.4 kmh SE 21.1 mph34.0 kmh 29.39 in995.3 mb 0.00 in0.0 mm 0.00 in0.0 mm 0.00 in0.0 mm
09:30 PM 40.1°F4.5°C 38.2°F3.4°C 93% 7.6 mph SSE12.2 kmh SSE 16.8 mph27.0 kmh 29.36 in994.2 mb 0.05 in1.3 mm 0.20 in5.1 mm 0.05 in1.3 mm
09:45 PM 40.5°F4.7°C 38.6°F3.7°C 93% 8.3 mph SSE13.4 kmh SSE 17.5 mph28.2 kmh 29.36 in994.2 mb 0.05 in1.3 mm 0.00 in0.0 mm 0.05 in1.3 mm
10:00 PM 40.5°F4.7°C 38.6°F3.7°C 93% 6.1 mph S9.8 kmh S 15.4 mph24.8 kmh 29.36 in994.2 mb 0.05 in1.3 mm 0.00 in0.0 mm 0.05 in1.3 mm
10:15 PM 40.8°F4.9°C 39.0°F3.9°C 93% 4.0 mph SSE6.4 kmh SSE 12.9 mph20.8 kmh 29.36 in994.2 mb 0.05 in1.3 mm 0.00 in0.0 mm 0.05 in1.3 mm
10:30 PM 41.4°F5.2°C 39.8°F4.3°C 94% 8.1 mph SSE13.0 kmh SSE 17.5 mph28.2 kmh 29.33 in993.2 mb 0.00 in0.0 mm 0.00 in0.0 mm 0.05 in1.3 mm
10:45 PM 41.9°F5.5°C 40.3°F4.6°C 94% 6.1 mph SSE9.8 kmh SSE 12.2 mph19.6 kmh 29.33 in993.2 mb 0.00 in0.0 mm 0.00 in0.0 mm 0.05 in1.3 mm
11:00 PM 42.4°F5.8°C 40.8°F4.9°C 94% 6.3 mph S10.1 kmh S 14.0 mph22.5 kmh 29.33 in993.2 mb 0.00 in0.0 mm 0.00 in0.0 mm 0.05 in1.3 mm
11:15 PM 43.2°F6.2°C 41.6°F5.3°C 94% 4.6 mph S7.4 kmh S 12.5 mph20.1 kmh 29.33 in993.2 mb 0.00 in0.0 mm 0.00 in0.0 mm 0.05 in1.3 mm
11:30 PM 43.9°F6.6°C 42.3°F5.7°C 94% 7.8 mph SSW12.6 kmh SSW 19.3 mph31.1 kmh 29.33 in993.2 mb 0.00 in0.0 mm 0.00 in0.0 mm 0.05 in1.3 mm
11:45 PM 44.4°F6.9°C 42.8°F6.0°C 94% 8.3 mph S13.4 kmh S 17.5 mph28.2 kmh 29.33 in993.2 mb 0.00 in0.0 mm 0.00 in0.0 mm 0.05 in1.3 mm